createdAt,value
2022-11-17T00:01:43.792Z,9.90
2022-11-17T00:04:12.279Z,9.90
2022-11-17T00:06:40.668Z,9.90
2022-11-17T00:09:17.458Z,10.00
2022-11-17T00:12:06.270Z,10.00
2022-11-17T00:14:36.841Z,10.00
2022-11-17T00:17:07.446Z,10.00
2022-11-17T00:19:53.503Z,10.00
2022-11-17T00:22:22.324Z,10.00
2022-11-17T00:24:51.244Z,10.10
2022-11-17T00:27:21.084Z,10.10
2022-11-17T00:29:49.344Z,10.20
2022-11-17T00:32:37.161Z,10.40
2022-11-17T00:35:06.555Z,10.50
2022-11-17T00:37:38.133Z,10.50
2022-11-17T00:40:07.330Z,10.60
2022-11-17T00:42:37.117Z,10.70
2022-11-17T00:45:06.236Z,10.70
2022-11-17T00:47:37.179Z,10.80
2022-11-17T00:50:06.324Z,10.80
2022-11-17T00:52:34.570Z,10.90
2022-11-17T00:55:03.217Z,10.90
2022-11-17T00:57:31.613Z,10.90
2022-11-17T01:00:01.199Z,10.90
2022-11-17T01:02:29.628Z,10.90
2022-11-17T01:04:57.996Z,10.80
2022-11-17T01:07:27.453Z,10.80
2022-11-17T01:09:56.129Z,10.70
2022-11-17T01:12:24.400Z,10.60
2022-11-17T01:14:52.714Z,10.50
2022-11-17T01:17:22.344Z,10.50
2022-11-17T01:19:51.201Z,10.40
2022-11-17T01:22:19.836Z,10.40
2022-11-17T01:24:48.502Z,10.30
2022-11-17T01:27:16.816Z,10.20
2022-11-17T01:29:45.116Z,10.20
2022-11-17T01:32:13.460Z,10.20
2022-11-17T01:34:44.221Z,10.20
2022-11-17T01:37:22.740Z,10.20
2022-11-17T01:39:51.607Z,10.20
2022-11-17T01:42:22.045Z,10.40
2022-11-17T01:45:00.006Z,10.50
2022-11-17T01:47:41.660Z,10.60
2022-11-17T01:50:22.890Z,10.70
2022-11-17T01:52:53.217Z,10.70
2022-11-17T01:55:23.196Z,10.80
2022-11-17T01:57:56.471Z,10.90
2022-11-17T02:00:26.138Z,11.00
2022-11-17T02:02:54.890Z,11.00
2022-11-17T02:05:40.499Z,11.10
2022-11-17T02:08:09.476Z,11.20
2022-11-17T02:10:50.164Z,11.20
2022-11-17T02:13:20.569Z,11.30
2022-11-17T02:15:49.023Z,11.30
2022-11-17T02:18:19.650Z,11.40
2022-11-17T02:21:06.592Z,11.40
2022-11-17T02:24:02.533Z,11.40
2022-11-17T02:27:04.105Z,11.40
2022-11-17T02:29:38.575Z,11.40
2022-11-17T02:32:12.580Z,11.40
2022-11-17T02:34:48.069Z,11.30
2022-11-17T02:37:25.109Z,11.20
2022-11-17T02:40:00.157Z,11.20
2022-11-17T02:42:53.970Z,11.10
2022-11-17T02:45:30.544Z,11.10
2022-11-17T02:48:03.339Z,11.00
2022-11-17T02:50:33.719Z,11.00
2022-11-17T02:53:02.045Z,11.10
2022-11-17T02:55:33.255Z,11.10
2022-11-17T02:58:01.588Z,11.00
2022-11-17T03:00:34.346Z,11.00
2022-11-17T03:03:17.567Z,11.00
2022-11-17T03:05:54.477Z,11.00
2022-11-17T03:08:35.646Z,11.00
2022-11-17T03:11:06.333Z,11.00
2022-11-17T03:13:45.072Z,11.00
2022-11-17T03:16:30.946Z,11.00
2022-11-17T03:19:07.527Z,11.00
2022-11-17T03:21:40.619Z,11.00
2022-11-17T03:24:14.014Z,11.00
2022-11-17T03:26:46.419Z,11.10
2022-11-17T03:29:16.990Z,11.10
2022-11-17T03:31:50.113Z,11.10
2022-11-17T03:34:23.129Z,11.10
2022-11-17T03:36:56.783Z,11.10
2022-11-17T03:39:30.867Z,11.10
2022-11-17T03:42:03.357Z,11.10
2022-11-17T03:44:39.519Z,11.10
2022-11-17T03:47:11.668Z,11.10
2022-11-17T03:49:46.557Z,11.00
2022-11-17T03:52:15.570Z,11.00
2022-11-17T03:54:44.006Z,11.00
2022-11-17T03:57:17.410Z,10.90
2022-11-17T03:59:54.452Z,10.90
2022-11-17T04:02:26.814Z,10.90
2022-11-17T04:05:07.222Z,10.90
2022-11-17T04:07:37.080Z,10.90
2022-11-17T04:10:06.459Z,10.80
2022-11-17T04:13:06.443Z,10.80
2022-11-17T04:15:56.986Z,10.80
2022-11-17T04:18:27.441Z,10.80
2022-11-17T04:20:57.786Z,10.70
2022-11-17T04:23:26.441Z,10.70
2022-11-17T04:26:13.922Z,10.60
2022-11-17T04:28:44.126Z,10.60
2022-11-17T04:31:14.543Z,10.60
2022-11-17T04:33:45.507Z,10.60
2022-11-17T04:36:16.111Z,10.60
2022-11-17T04:38:45.538Z,10.50
2022-11-17T04:41:33.465Z,10.50
2022-11-17T04:44:02.675Z,10.50
2022-11-17T04:46:32.088Z,10.50
2022-11-17T04:49:02.381Z,10.50
2022-11-17T04:51:31.835Z,10.50
2022-11-17T04:54:00.667Z,10.60
2022-11-17T04:56:29.295Z,10.60
2022-11-17T04:58:57.694Z,10.60
2022-11-17T05:01:26.981Z,10.50
2022-11-17T05:03:56.580Z,10.50
2022-11-17T05:06:28.070Z,10.40
2022-11-17T05:08:57.345Z,10.40
2022-11-17T05:11:44.590Z,10.40
2022-11-17T05:14:14.475Z,10.40
2022-11-17T05:17:03.350Z,10.40
2022-11-17T05:19:38.738Z,10.50
2022-11-17T05:22:23.634Z,10.50
2022-11-17T05:24:51.891Z,10.60
2022-11-17T05:27:20.161Z,10.70
2022-11-17T05:29:48.317Z,10.70
2022-11-17T05:32:16.645Z,10.80
2022-11-17T05:34:44.814Z,10.90
2022-11-17T05:37:14.338Z,11.00
2022-11-17T05:39:42.567Z,11.10
2022-11-17T05:42:11.051Z,11.20
2022-11-17T05:44:39.946Z,11.30
2022-11-17T05:47:08.210Z,11.40
2022-11-17T05:49:36.320Z,11.40
2022-11-17T05:52:06.955Z,11.50
2022-11-17T05:54:36.554Z,11.60
2022-11-17T05:57:08.266Z,11.60
2022-11-17T05:59:41.000Z,11.60
2022-11-17T06:02:13.920Z,11.70
2022-11-17T06:04:42.431Z,11.70
2022-11-17T06:07:11.043Z,11.70
2022-11-17T06:09:42.766Z,11.70
2022-11-17T06:12:12.775Z,11.80
2022-11-17T06:14:41.020Z,11.80
2022-11-17T06:17:17.543Z,11.90
2022-11-17T06:19:54.587Z,11.90
2022-11-17T06:22:22.948Z,11.90
2022-11-17T06:24:52.686Z,11.90
2022-11-17T06:27:23.279Z,11.90
2022-11-17T06:29:51.656Z,12.00
2022-11-17T06:32:21.874Z,12.10
2022-11-17T06:34:55.835Z,12.10
2022-11-17T06:37:25.125Z,12.20
2022-11-17T06:39:55.009Z,12.30
2022-11-17T06:42:43.826Z,12.40
2022-11-17T06:45:13.119Z,12.40
2022-11-17T06:47:41.716Z,12.40
2022-11-17T06:50:11.215Z,12.40
2022-11-17T06:52:39.673Z,12.40
2022-11-17T06:55:10.217Z,12.40
2022-11-17T06:57:38.538Z,12.50
2022-11-17T07:00:07.818Z,12.50
2022-11-17T07:02:37.190Z,12.50
2022-11-17T07:05:06.458Z,12.60
2022-11-17T07:07:34.857Z,12.60
2022-11-17T07:10:03.177Z,12.60
2022-11-17T07:12:34.034Z,12.60
2022-11-17T07:15:02.559Z,12.60
2022-11-17T07:17:32.686Z,12.60
2022-11-17T07:20:00.890Z,12.60
2022-11-17T07:22:29.146Z,12.70
2022-11-17T07:24:57.358Z,12.60
2022-11-17T07:27:25.619Z,12.60
2022-11-17T07:29:55.582Z,12.60
2022-11-17T07:32:23.808Z,12.60
2022-11-17T07:34:52.135Z,12.60
2022-11-17T07:37:20.631Z,12.60
2022-11-17T07:39:48.901Z,12.60
2022-11-17T07:42:17.172Z,12.60
2022-11-17T07:44:55.595Z,12.60
2022-11-17T07:47:24.156Z,12.70
2022-11-17T07:49:52.455Z,12.70
2022-11-17T07:52:21.026Z,12.60
2022-11-17T07:54:49.296Z,12.70
2022-11-17T07:57:17.653Z,12.70
2022-11-17T07:59:45.915Z,12.70
2022-11-17T08:02:15.561Z,12.70
2022-11-17T08:04:43.774Z,12.70
2022-11-17T08:07:12.168Z,12.70
2022-11-17T08:09:40.784Z,12.70
2022-11-17T08:12:09.267Z,12.70
2022-11-17T08:14:37.521Z,12.80
2022-11-17T08:17:05.834Z,12.70
2022-11-17T08:19:35.406Z,12.80
2022-11-17T08:22:06.613Z,12.80
2022-11-17T08:24:34.912Z,12.80
2022-11-17T08:27:03.252Z,12.90
2022-11-17T08:29:31.419Z,12.90
2022-11-17T08:31:59.669Z,12.90
2022-11-17T08:34:27.944Z,12.90
2022-11-17T08:36:57.594Z,12.80
2022-11-17T08:39:25.869Z,12.80
2022-11-17T08:41:54.089Z,12.80
2022-11-17T08:44:22.330Z,12.80
2022-11-17T08:46:50.650Z,12.80
2022-11-17T08:49:19.021Z,12.80
2022-11-17T08:51:47.227Z,12.80
2022-11-17T08:54:16.800Z,12.80
2022-11-17T08:56:46.539Z,12.80
2022-11-17T08:59:15.411Z,12.80
2022-11-17T09:01:43.722Z,12.80
2022-11-17T09:04:11.984Z,12.80
2022-11-17T09:06:40.347Z,12.80
2022-11-17T09:09:10.887Z,12.90
2022-11-17T09:11:40.630Z,12.90
2022-11-17T09:14:08.924Z,12.90
2022-11-17T09:16:37.605Z,12.90
2022-11-17T09:19:05.984Z,12.90
2022-11-17T09:21:34.836Z,12.90
2022-11-17T09:24:03.184Z,12.90
2022-11-17T09:26:31.585Z,12.90
2022-11-17T09:29:03.880Z,13.00
2022-11-17T09:31:32.181Z,13.00
2022-11-17T09:34:04.846Z,12.90
2022-11-17T09:36:34.530Z,12.90
2022-11-17T09:39:02.775Z,12.90
2022-11-17T09:41:35.779Z,12.90
2022-11-17T09:44:16.503Z,12.90
2022-11-17T09:46:57.287Z,12.90
2022-11-17T09:49:55.270Z,12.80
2022-11-17T09:52:34.471Z,12.90
2022-11-17T09:55:11.316Z,12.90
2022-11-17T09:57:43.169Z,12.90
2022-11-17T10:00:18.258Z,13.00
2022-11-17T10:02:46.898Z,13.00
2022-11-17T10:05:17.438Z,13.00
2022-11-17T10:07:51.155Z,13.10
2022-11-17T10:10:22.587Z,13.10
2022-11-17T10:12:56.958Z,13.10
2022-11-17T10:15:30.645Z,13.10
2022-11-17T10:17:59.129Z,13.10
2022-11-17T10:20:27.408Z,13.10
2022-11-17T10:22:56.964Z,13.00
2022-11-17T10:25:37.955Z,13.00
2022-11-17T10:28:08.291Z,13.00
2022-11-17T10:30:38.004Z,12.90
2022-11-17T10:33:06.237Z,12.70
2022-11-17T10:35:36.192Z,12.60
2022-11-17T10:38:07.221Z,12.40
2022-11-17T10:40:48.674Z,12.30
2022-11-17T10:43:25.899Z,12.10
2022-11-17T10:45:57.601Z,12.00
2022-11-17T10:48:29.596Z,11.90
2022-11-17T10:50:59.344Z,11.80
2022-11-17T10:53:38.100Z,11.80
2022-11-17T10:56:16.265Z,11.90
2022-11-17T10:59:00.575Z,12.40
2022-11-17T11:01:32.383Z,13.10
2022-11-17T11:04:00.875Z,13.80
2022-11-17T11:06:30.600Z,14.50
2022-11-17T11:09:04.870Z,15.00
2022-11-17T11:11:43.321Z,15.50
2022-11-17T11:14:23.102Z,15.80
2022-11-17T11:16:53.350Z,16.00
2022-11-17T11:19:23.665Z,16.20
2022-11-17T11:22:05.416Z,16.60
2022-11-17T11:24:45.294Z,16.90
2022-11-17T11:27:39.706Z,17.10
2022-11-17T11:30:12.503Z,17.50
2022-11-17T11:32:56.443Z,18.00
2022-11-17T11:35:37.697Z,18.20
2022-11-17T11:38:21.139Z,18.20
2022-11-17T11:41:05.082Z,18.20
2022-11-17T11:43:40.365Z,18.20
2022-11-17T11:46:16.982Z,18.00
2022-11-17T11:48:49.007Z,17.90
2022-11-17T11:51:21.447Z,17.70
2022-11-17T11:53:55.854Z,17.60
2022-11-17T11:56:30.952Z,17.60
2022-11-17T11:59:03.488Z,18.20
2022-11-17T12:01:41.440Z,18.70
2022-11-17T12:04:24.806Z,18.90
2022-11-17T12:07:00.736Z,19.00
2022-11-17T12:10:00.014Z,18.60
2022-11-17T12:12:32.760Z,18.10
2022-11-17T12:15:30.418Z,17.60
2022-11-17T12:18:01.591Z,17.10
2022-11-17T12:21:00.100Z,16.60
2022-11-17T12:23:48.844Z,16.30
2022-11-17T12:26:26.521Z,15.90
2022-11-17T12:29:30.733Z,15.70
2022-11-17T12:32:00.820Z,15.50
2022-11-17T12:34:31.760Z,15.40
2022-11-17T12:37:31.335Z,15.30
2022-11-17T12:40:05.673Z,15.40
2022-11-17T12:42:35.177Z,15.50
2022-11-17T12:45:08.283Z,15.80
2022-11-17T12:47:37.954Z,16.10
2022-11-17T12:50:42.965Z,16.40
2022-11-17T12:53:26.279Z,16.50
2022-11-17T12:56:34.084Z,16.40
2022-11-17T12:59:17.747Z,16.20
2022-11-17T13:01:55.067Z,16.10
2022-11-17T13:04:30.046Z,15.90
2022-11-17T13:07:03.587Z,15.90
2022-11-17T13:09:34.908Z,16.00
2022-11-17T13:12:05.193Z,16.00
2022-11-17T13:14:35.121Z,16.20
2022-11-17T13:17:04.095Z,16.30
2022-11-17T13:19:38.439Z,16.30
2022-11-17T13:22:14.878Z,16.30
2022-11-17T13:24:46.694Z,16.00
2022-11-17T13:27:23.253Z,15.90
2022-11-17T13:29:52.302Z,15.80
2022-11-17T13:32:23.702Z,15.60
2022-11-17T13:34:56.491Z,15.50
2022-11-17T13:37:26.443Z,15.40
2022-11-17T13:40:02.105Z,15.30
2022-11-17T13:42:34.169Z,15.20
2022-11-17T13:45:05.812Z,15.10
2022-11-17T13:47:46.481Z,15.10
2022-11-17T13:50:39.919Z,15.00
2022-11-17T13:53:26.338Z,15.10
2022-11-17T13:55:56.022Z,15.10
2022-11-17T13:58:32.223Z,15.10
2022-11-17T14:01:00.819Z,15.20
2022-11-17T14:03:37.607Z,15.20
2022-11-17T14:06:08.126Z,15.30
2022-11-17T14:08:38.168Z,15.20
2022-11-17T14:11:21.171Z,15.30
2022-11-17T14:13:52.148Z,15.30
2022-11-17T14:16:23.765Z,15.20
2022-11-17T14:19:03.366Z,15.20
2022-11-17T14:21:32.797Z,15.30
2022-11-17T14:24:07.463Z,15.30
2022-11-17T14:26:42.598Z,15.30
2022-11-17T14:29:13.258Z,15.30
2022-11-17T14:31:41.766Z,15.30
2022-11-17T14:34:10.287Z,15.20
2022-11-17T14:36:40.125Z,15.20
2022-11-17T14:39:15.518Z,15.20
2022-11-17T14:41:46.363Z,15.10
2022-11-17T14:44:14.751Z,15.10
2022-11-17T14:46:43.325Z,15.00
2022-11-17T14:49:12.183Z,15.00
2022-11-17T14:51:40.841Z,15.00
2022-11-17T14:54:09.094Z,14.90
2022-11-17T14:56:38.406Z,14.90
2022-11-17T14:59:09.147Z,14.90
2022-11-17T15:01:38.652Z,15.00
2022-11-17T15:04:34.561Z,14.90
2022-11-17T15:06:57.069Z,14.90
2022-11-17T15:09:25.366Z,14.90
2022-11-17T15:11:53.658Z,14.80
2022-11-17T15:14:23.260Z,14.80
2022-11-17T15:16:51.459Z,14.70
2022-11-17T15:19:20.011Z,14.70
2022-11-17T15:21:48.559Z,14.60
2022-11-17T15:24:17.279Z,14.60
2022-11-17T15:26:45.890Z,14.60
2022-11-17T15:29:15.963Z,14.50
2022-11-17T15:31:45.986Z,14.50
2022-11-17T15:34:19.901Z,14.40
2022-11-17T15:36:49.823Z,14.40
2022-11-17T15:39:18.764Z,14.40
2022-11-17T15:41:48.772Z,14.30
2022-11-17T15:44:18.862Z,14.30
2022-11-17T15:46:48.667Z,14.30
2022-11-17T15:49:17.598Z,14.20
2022-11-17T15:51:46.224Z,14.20
2022-11-17T15:54:19.978Z,14.10
2022-11-17T15:56:48.617Z,14.10
2022-11-17T15:59:17.122Z,14.00
2022-11-17T16:01:46.226Z,14.00
2022-11-17T16:04:16.668Z,14.00
2022-11-17T16:06:46.926Z,14.00
2022-11-17T16:09:16.010Z,14.00
2022-11-17T16:11:44.745Z,14.00
2022-11-17T16:14:15.122Z,14.00
2022-11-17T16:16:45.983Z,14.00
2022-11-17T16:19:16.235Z,13.90
2022-11-17T16:21:44.695Z,13.90
2022-11-17T16:24:13.122Z,13.80
2022-11-17T16:26:41.712Z,13.70
2022-11-17T16:29:10.237Z,13.70
2022-11-17T16:31:38.999Z,13.70
2022-11-17T16:34:08.957Z,13.70
2022-11-17T16:36:40.264Z,13.80
2022-11-17T16:39:10.791Z,13.80
2022-11-17T16:41:41.173Z,13.80
2022-11-17T16:44:11.765Z,13.80
2022-11-17T16:46:42.518Z,13.70
2022-11-17T16:49:13.710Z,13.70
2022-11-17T16:51:48.185Z,13.70
2022-11-17T16:54:16.649Z,13.70
2022-11-17T16:56:46.082Z,13.70
2022-11-17T16:59:14.918Z,13.70
2022-11-17T17:01:43.336Z,13.60
2022-11-17T17:04:12.735Z,13.60
2022-11-17T17:06:45.110Z,13.60
2022-11-17T17:09:15.474Z,13.60
2022-11-17T17:11:44.090Z,13.50
2022-11-17T17:14:14.942Z,13.50
2022-11-17T17:16:43.738Z,13.50
2022-11-17T17:19:13.649Z,13.40
2022-11-17T17:21:45.608Z,13.40
2022-11-17T17:24:15.183Z,13.30
2022-11-17T17:26:43.443Z,13.30
2022-11-17T17:29:12.856Z,13.30
2022-11-17T17:31:43.195Z,13.30
2022-11-17T17:34:12.759Z,13.30
2022-11-17T17:36:41.219Z,13.30
2022-11-17T17:39:14.381Z,13.30
2022-11-17T17:41:44.175Z,13.30
2022-11-17T17:44:16.267Z,13.30
2022-11-17T17:46:44.656Z,13.30
2022-11-17T17:49:13.535Z,13.10
2022-11-17T17:51:44.392Z,12.90
2022-11-17T17:54:18.136Z,12.70
2022-11-17T17:56:47.306Z,12.50
2022-11-17T17:59:16.664Z,12.30
2022-11-17T18:01:47.646Z,12.10
2022-11-17T18:04:17.463Z,11.80
2022-11-17T18:06:48.039Z,11.60
2022-11-17T18:09:20.728Z,11.40
2022-11-17T18:11:51.134Z,11.10
2022-11-17T18:14:24.682Z,11.00
2022-11-17T18:16:53.926Z,10.70
2022-11-17T18:19:24.061Z,10.60
2022-11-17T18:21:55.805Z,10.40
2022-11-17T18:24:26.056Z,10.30
2022-11-17T18:26:55.609Z,10.10
2022-11-17T18:29:24.745Z,10.00
2022-11-17T18:31:53.014Z,10.00
2022-11-17T18:34:22.845Z,10.00
2022-11-17T18:36:52.649Z,10.10
2022-11-17T18:39:21.303Z,10.10
2022-11-17T18:41:51.064Z,10.10
2022-11-17T18:44:20.380Z,10.20
2022-11-17T18:46:49.163Z,10.30
2022-11-17T18:49:17.973Z,10.40
2022-11-17T18:51:46.626Z,10.40
2022-11-17T18:54:15.261Z,10.40
2022-11-17T18:56:44.534Z,10.30
2022-11-17T18:59:15.038Z,10.30
2022-11-17T19:01:44.147Z,10.30
2022-11-17T19:04:14.522Z,10.20
2022-11-17T19:06:43.404Z,10.20
2022-11-17T19:09:12.363Z,10.20
2022-11-17T19:11:41.261Z,10.10
2022-11-17T19:14:09.671Z,10.10
2022-11-17T19:16:44.626Z,10.00
2022-11-17T19:19:14.909Z,10.00
2022-11-17T19:21:44.382Z,10.00
2022-11-17T19:24:13.132Z,9.90
2022-11-17T19:26:42.769Z,9.90
2022-11-17T19:29:17.198Z,9.80
2022-11-17T19:31:48.562Z,9.80
2022-11-17T19:34:18.422Z,9.70
2022-11-17T19:36:46.901Z,9.70
2022-11-17T19:39:17.082Z,9.70
2022-11-17T19:41:47.635Z,9.70
2022-11-17T19:44:19.412Z,9.70
2022-11-17T19:46:49.679Z,9.70
2022-11-17T19:49:18.429Z,9.70
2022-11-17T19:51:47.089Z,9.60
2022-11-17T19:54:15.532Z,9.60
2022-11-17T19:56:44.131Z,9.70
2022-11-17T19:59:16.399Z,9.60
2022-11-17T20:01:46.705Z,9.60
2022-11-17T20:04:16.612Z,9.60
2022-11-17T20:06:45.053Z,9.60
2022-11-17T20:09:16.336Z,9.60
2022-11-17T20:11:44.990Z,9.70
2022-11-17T20:14:14.873Z,9.70
2022-11-17T20:16:43.379Z,9.70
2022-11-17T20:19:12.578Z,9.70
2022-11-17T20:21:42.593Z,9.70
2022-11-17T20:24:11.468Z,9.70
2022-11-17T20:26:40.944Z,9.70
2022-11-17T20:29:09.550Z,9.60
2022-11-17T20:31:37.998Z,9.60
2022-11-17T20:34:07.086Z,9.60
2022-11-17T20:36:36.366Z,9.60
2022-11-17T20:39:08.131Z,9.60
2022-11-17T20:41:44.249Z,9.50
2022-11-17T20:44:24.882Z,9.50
2022-11-17T20:46:54.919Z,9.50
2022-11-17T20:49:23.708Z,9.50
2022-11-17T20:51:52.222Z,9.50
2022-11-17T20:54:23.120Z,9.60
2022-11-17T20:56:51.579Z,9.50
2022-11-17T20:59:20.371Z,9.60
2022-11-17T21:01:50.206Z,9.60
2022-11-17T21:04:18.709Z,9.60
2022-11-17T21:06:47.213Z,9.60
2022-11-17T21:09:15.944Z,9.60
2022-11-17T21:11:57.736Z,9.60
2022-11-17T21:14:27.611Z,9.60
2022-11-17T21:16:57.730Z,9.70
2022-11-17T21:19:26.576Z,9.70
2022-11-17T21:21:55.669Z,9.70
2022-11-17T21:24:24.364Z,9.70
2022-11-17T21:26:55.696Z,9.70
2022-11-17T21:29:24.127Z,9.70
2022-11-17T21:31:52.454Z,9.70
2022-11-17T21:34:20.794Z,9.70
2022-11-17T21:36:49.096Z,9.80
2022-11-17T21:39:19.693Z,9.80
2022-11-17T21:41:48.456Z,9.80
2022-11-17T21:44:18.321Z,9.80
2022-11-17T21:46:46.737Z,9.80
2022-11-17T21:49:15.560Z,9.80
2022-11-17T21:51:46.036Z,9.80
2022-11-17T21:54:14.773Z,9.80
2022-11-17T21:56:43.027Z,9.80
2022-11-17T21:59:13.170Z,9.90
2022-11-17T22:01:42.756Z,9.90
2022-11-17T22:04:12.011Z,9.90
2022-11-17T22:06:40.665Z,9.90
2022-11-17T22:09:10.334Z,10.00
2022-11-17T22:11:39.171Z,10.00
2022-11-17T22:14:12.789Z,10.00
2022-11-17T22:16:44.906Z,10.00
2022-11-17T22:19:15.693Z,10.10
2022-11-17T22:21:45.438Z,10.10
2022-11-17T22:24:14.191Z,10.10
2022-11-17T22:26:43.743Z,10.10
2022-11-17T22:29:14.468Z,10.10
2022-11-17T22:31:45.203Z,10.10
2022-11-17T22:34:15.470Z,10.10
2022-11-17T22:36:43.805Z,10.10
2022-11-17T22:39:13.757Z,10.10
2022-11-17T22:41:42.691Z,10.10
2022-11-17T22:44:13.986Z,10.10
2022-11-17T22:46:43.332Z,10.20
2022-11-17T22:49:14.539Z,10.20
2022-11-17T22:52:00.246Z,10.20
2022-11-17T22:54:28.655Z,10.20
2022-11-17T22:56:57.117Z,10.20
2022-11-17T22:59:25.628Z,10.20
2022-11-17T23:01:54.330Z,10.20
2022-11-17T23:04:24.120Z,10.20
2022-11-17T23:06:52.702Z,10.30
2022-11-17T23:09:21.344Z,10.30
2022-11-17T23:11:50.383Z,10.30
2022-11-17T23:14:18.633Z,10.20
2022-11-17T23:16:47.149Z,10.30
2022-11-17T23:19:16.314Z,10.20
2022-11-17T23:21:46.136Z,10.30
2022-11-17T23:24:14.949Z,10.20
2022-11-17T23:26:43.979Z,10.30
2022-11-17T23:29:12.489Z,10.30
2022-11-17T23:31:41.085Z,10.30
2022-11-17T23:34:10.622Z,10.30
2022-11-17T23:36:39.306Z,10.30
2022-11-17T23:39:09.532Z,10.30
2022-11-17T23:41:38.294Z,10.20
2022-11-17T23:44:06.982Z,10.20
2022-11-17T23:46:35.299Z,10.20
2022-11-17T23:49:05.064Z,10.10
2022-11-17T23:51:33.487Z,10.10
2022-11-17T23:54:02.795Z,10.10
2022-11-17T23:56:34.793Z,10.00
2022-11-17T23:59:03.749Z,10.00
